createdAt,value
2019-04-29T00:01:12.316Z,8.20
2019-04-29T00:03:53.262Z,8.10
2019-04-29T00:06:33.817Z,8.20
2019-04-29T00:09:14.691Z,8.30
2019-04-29T00:11:55.903Z,8.40
2019-04-29T00:14:37.755Z,8.40
2019-04-29T00:23:09.630Z,8.50
2019-04-29T00:25:57.621Z,8.50
2019-04-29T00:28:45.636Z,8.50
2019-04-29T00:31:33.701Z,8.50
2019-04-29T00:34:21.702Z,8.50
2019-04-29T00:46:04.746Z,8.60
2019-04-29T00:48:45.668Z,8.60
2019-04-29T00:51:24.793Z,8.60
2019-04-29T00:54:31.897Z,8.60
2019-04-29T00:57:19.894Z,8.50
2019-04-29T01:00:28.518Z,8.50
2019-04-29T01:03:16.523Z,8.50
2019-04-29T01:06:04.628Z,8.40
2019-04-29T01:08:52.700Z,8.30
2019-04-29T01:11:40.705Z,8.10
2019-04-29T01:14:28.782Z,8.00
2019-04-29T01:17:16.778Z,8.10
2019-04-29T01:20:04.999Z,8.20
2019-04-29T01:22:53.073Z,8.20
2019-04-29T01:31:51.881Z,8.20
2019-04-29T01:37:40.971Z,8.20
2019-04-29T01:43:59.129Z,8.10
2019-04-29T01:46:41.947Z,8.10
2019-04-29T01:49:22.528Z,8.10
2019-04-29T01:52:03.297Z,8.10
2019-04-29T01:54:43.771Z,8.20
2019-04-29T01:57:24.095Z,8.20
2019-04-29T02:00:04.991Z,8.20
2019-04-29T02:02:45.333Z,8.10
2019-04-29T02:05:25.971Z,8.20
2019-04-29T02:08:06.555Z,8.20
2019-04-29T02:10:47.302Z,8.20
2019-04-29T02:13:27.663Z,8.10
2019-04-29T02:16:08.375Z,8.10
2019-04-29T02:18:49.070Z,7.90
2019-04-29T02:21:29.748Z,8.00
2019-04-29T02:27:05.776Z,8.00
2019-04-29T02:29:46.939Z,8.00
2019-04-29T02:32:27.776Z,8.00
2019-04-29T02:35:08.608Z,8.10
2019-04-29T02:37:49.392Z,8.10
2019-04-29T02:43:26.496Z,8.00
2019-04-29T02:46:07.389Z,7.90
2019-04-29T02:48:48.063Z,8.00
2019-04-29T02:51:47.594Z,8.00
2019-04-29T02:54:30.029Z,8.00
2019-04-29T03:03:22.542Z,7.70
2019-04-29T03:06:03.772Z,7.80
2019-04-29T03:08:44.216Z,7.80
2019-04-29T03:11:24.957Z,7.80
2019-04-29T03:14:05.445Z,7.70
2019-04-29T03:16:46.095Z,7.60
2019-04-29T03:19:32.151Z,7.60
2019-04-29T03:22:13.363Z,7.50
2019-04-29T03:24:53.890Z,7.50
2019-04-29T03:27:34.365Z,7.60
2019-04-29T03:30:15.152Z,7.60
2019-04-29T03:32:55.519Z,7.60
2019-04-29T03:35:36.119Z,7.60
2019-04-29T03:38:16.948Z,7.50
2019-04-29T03:40:57.640Z,7.40
2019-04-29T03:43:38.899Z,7.30
2019-04-29T03:46:19.975Z,7.20
2019-04-29T03:49:00.482Z,7.20
2019-04-29T03:51:41.686Z,7.20
2019-04-29T03:54:23.180Z,7.20
2019-04-29T03:57:04.392Z,7.40
2019-04-29T03:59:45.216Z,7.50
2019-04-29T04:05:54.259Z,7.60
2019-04-29T04:08:37.166Z,7.50
2019-04-29T04:11:17.702Z,7.50
2019-04-29T04:13:58.315Z,7.40
2019-04-29T04:16:58.136Z,7.40
2019-04-29T04:19:39.454Z,7.40
2019-04-29T04:22:20.207Z,7.30
2019-04-29T04:25:00.753Z,7.30
2019-04-29T04:27:41.228Z,7.30
2019-04-29T04:30:22.029Z,7.40
2019-04-29T04:33:02.431Z,7.40
2019-04-29T04:35:43.225Z,7.40
2019-04-29T04:38:24.246Z,7.50
2019-04-29T04:41:07.605Z,7.50
2019-04-29T04:43:48.535Z,7.50
2019-04-29T04:46:29.248Z,7.50
2019-04-29T04:49:10.176Z,7.50
2019-04-29T04:51:51.030Z,7.50
2019-04-29T04:54:31.730Z,7.50
2019-04-29T04:57:12.303Z,7.60
2019-04-29T04:59:53.115Z,7.60
2019-04-29T05:02:34.224Z,7.70
2019-04-29T05:05:15.079Z,7.80
2019-04-29T05:07:56.045Z,7.80
2019-04-29T05:10:36.841Z,8.00
2019-04-29T05:13:05.927Z,8.10
2019-04-29T05:15:54.256Z,8.20
2019-04-29T05:18:42.281Z,8.20
2019-04-29T05:21:30.267Z,8.20
2019-04-29T05:24:18.263Z,8.30
2019-04-29T05:27:06.339Z,8.60
2019-04-29T05:29:54.678Z,8.80
2019-04-29T05:32:42.679Z,8.90
2019-04-29T05:35:49.782Z,8.90
2019-04-29T05:41:50.134Z,9.10
2019-04-29T05:44:57.205Z,9.20
2019-04-29T05:47:52.344Z,9.20
2019-04-29T05:53:42.352Z,9.30
2019-04-29T05:56:30.347Z,9.40
2019-04-29T05:59:18.343Z,9.50
2019-04-29T06:02:06.418Z,9.50
2019-04-29T06:04:54.414Z,9.60
2019-04-29T06:07:42.435Z,9.60
2019-04-29T06:10:30.432Z,9.70
2019-04-29T06:13:19.243Z,9.70
2019-04-29T06:16:07.259Z,9.80
2019-04-29T06:19:00.266Z,9.80
2019-04-29T06:21:44.956Z,9.90
2019-04-29T06:24:32.983Z,10.00
2019-04-29T06:27:23.075Z,10.10
2019-04-29T06:30:11.157Z,10.20
2019-04-29T06:32:59.417Z,10.30
2019-04-29T06:35:49.023Z,10.20
2019-04-29T06:38:37.983Z,10.20
2019-04-29T06:41:25.991Z,10.30
2019-04-29T06:44:16.661Z,10.30
2019-04-29T06:47:03.724Z,10.40
2019-04-29T06:49:51.702Z,10.50
2019-04-29T06:52:40.021Z,10.50
2019-04-29T06:55:28.074Z,10.60
2019-04-29T06:58:16.427Z,10.70
2019-04-29T07:01:04.661Z,10.60
2019-04-29T07:03:55.815Z,10.60
2019-04-29T07:06:56.422Z,10.70
2019-04-29T07:09:32.130Z,10.70
2019-04-29T07:12:20.138Z,10.80
2019-04-29T07:15:12.334Z,10.70
2019-04-29T07:17:57.851Z,10.60
2019-04-29T07:23:52.958Z,10.70
2019-04-29T07:26:40.980Z,10.70
2019-04-29T07:29:32.608Z,10.60
2019-04-29T07:32:19.642Z,10.70
2019-04-29T07:35:09.844Z,10.80
2019-04-29T07:37:50.663Z,10.80
2019-04-29T07:40:31.444Z,10.80
2019-04-29T07:43:12.241Z,10.90
2019-04-29T07:46:03.760Z,10.70
2019-04-29T07:48:43.612Z,10.80
2019-04-29T07:51:24.210Z,10.80
2019-04-29T07:54:05.206Z,11.00
2019-04-29T07:56:45.614Z,10.90
2019-04-29T07:59:26.356Z,10.90
2019-04-29T08:02:07.747Z,10.80
2019-04-29T08:04:48.192Z,10.80
2019-04-29T08:07:28.991Z,10.90
2019-04-29T08:10:22.839Z,10.80
2019-04-29T08:12:52.099Z,10.90
2019-04-29T08:15:36.647Z,10.90
2019-04-29T08:18:16.455Z,10.90
2019-04-29T08:20:58.203Z,10.70
2019-04-29T08:23:42.112Z,10.80
2019-04-29T08:26:21.922Z,10.90
2019-04-29T08:29:02.596Z,10.90
2019-04-29T08:31:43.347Z,10.80
2019-04-29T08:34:24.425Z,10.80
2019-04-29T08:37:04.864Z,10.80
2019-04-29T08:40:00.297Z,10.70
2019-04-29T08:42:31.198Z,10.50
2019-04-29T08:45:34.766Z,10.40
2019-04-29T08:48:01.888Z,10.40
2019-04-29T08:53:57.102Z,10.30
2019-04-29T08:57:01.852Z,10.20
2019-04-29T08:59:34.844Z,10.10
2019-04-29T09:02:34.311Z,10.10
2019-04-29T09:05:13.235Z,10.10
2019-04-29T09:08:03.022Z,10.00
2019-04-29T09:13:58.103Z,9.90
2019-04-29T09:16:46.091Z,9.90
2019-04-29T09:19:34.434Z,9.90
2019-04-29T09:22:42.214Z,9.80
2019-04-29T09:26:01.981Z,9.90
2019-04-29T09:28:39.050Z,10.00
2019-04-29T09:31:27.350Z,10.00
2019-04-29T09:34:15.604Z,10.00
2019-04-29T09:36:56.640Z,10.00
2019-04-29T09:39:43.412Z,10.00
2019-04-29T09:48:35.804Z,10.00
2019-04-29T09:51:18.078Z,10.00
2019-04-29T09:53:59.370Z,10.00
2019-04-29T09:56:39.711Z,10.00
2019-04-29T10:08:08.916Z,9.90
2019-04-29T10:10:49.638Z,9.90
2019-04-29T10:13:30.352Z,10.00
2019-04-29T10:16:31.699Z,9.90
2019-04-29T10:19:31.698Z,10.00
2019-04-29T10:22:12.055Z,10.00
2019-04-29T10:24:52.949Z,10.10
2019-04-29T10:27:34.113Z,10.00
2019-04-29T10:30:17.246Z,10.00
2019-04-29T10:32:58.736Z,10.10
2019-04-29T10:35:40.766Z,10.00
2019-04-29T10:38:22.028Z,10.10
2019-04-29T10:41:24.757Z,10.20
2019-04-29T10:44:24.922Z,10.30
2019-04-29T10:47:25.162Z,10.30
2019-04-29T10:50:10.525Z,10.20
2019-04-29T10:52:52.117Z,10.00
2019-04-29T10:55:33.327Z,10.10
2019-04-29T10:58:13.817Z,10.10
2019-04-29T11:00:57.345Z,10.20
2019-04-29T11:03:38.975Z,10.20
2019-04-29T11:06:20.127Z,10.30
2019-04-29T11:09:19.959Z,10.30
2019-04-29T11:12:01.194Z,10.30
2019-04-29T11:14:42.946Z,10.30
2019-04-29T11:17:25.742Z,10.20
2019-04-29T11:20:06.795Z,10.30
2019-04-29T11:22:53.187Z,10.30
2019-04-29T11:25:53.068Z,10.30
2019-04-29T11:28:33.810Z,10.20
2019-04-29T11:31:18.840Z,10.20
2019-04-29T11:37:13.835Z,10.20
2019-04-29T11:39:53.426Z,10.20
2019-04-29T11:42:36.786Z,10.10
2019-04-29T11:45:16.477Z,10.20
2019-04-29T11:47:57.508Z,10.30
2019-04-29T11:53:31.151Z,10.40
2019-04-29T11:56:12.093Z,10.40
2019-04-29T11:59:11.744Z,10.40
2019-04-29T12:02:14.748Z,10.20
2019-04-29T12:05:20.149Z,10.20
2019-04-29T12:08:04.988Z,10.30
2019-04-29T12:10:48.409Z,10.40
2019-04-29T12:13:51.511Z,10.30
2019-04-29T12:16:37.108Z,10.40
2019-04-29T12:19:24.922Z,10.40
2019-04-29T12:22:09.116Z,10.50
2019-04-29T12:24:49.058Z,10.50
2019-04-29T12:27:29.751Z,10.50
2019-04-29T12:30:12.083Z,10.60
2019-04-29T12:36:08.423Z,10.70
2019-04-29T12:39:07.871Z,10.60
2019-04-29T12:44:55.112Z,10.70
2019-04-29T12:47:36.584Z,10.60
2019-04-29T12:50:21.537Z,10.60
2019-04-29T12:53:00.523Z,10.60
2019-04-29T12:55:46.103Z,10.70
2019-04-29T12:58:25.814Z,10.70
2019-04-29T13:01:49.929Z,10.70
2019-04-29T13:04:28.148Z,10.70
2019-04-29T13:13:15.779Z,10.80
2019-04-29T13:16:20.297Z,10.70
2019-04-29T13:19:11.663Z,10.70
2019-04-29T13:21:47.312Z,10.70
2019-04-29T13:24:28.903Z,10.70
2019-04-29T13:27:16.393Z,10.80
2019-04-29T13:29:50.799Z,10.80
2019-04-29T13:32:39.152Z,10.80
2019-04-29T13:35:20.251Z,10.90
2019-04-29T13:38:01.170Z,10.90
2019-04-29T13:40:41.955Z,10.80
2019-04-29T13:43:25.946Z,10.70
2019-04-29T13:46:24.384Z,10.80
2019-04-29T13:52:15.625Z,10.90
2019-04-29T13:54:56.982Z,10.80
2019-04-29T13:57:37.470Z,10.80
2019-04-29T14:00:37.353Z,10.80
2019-04-29T14:06:14.435Z,10.90
2019-04-29T14:08:55.627Z,10.80
2019-04-29T14:11:36.205Z,10.80
2019-04-29T14:14:17.984Z,10.80
2019-04-29T14:17:17.224Z,10.90
2019-04-29T14:19:42.605Z,10.90
2019-04-29T14:22:23.304Z,10.80
2019-04-29T14:25:03.898Z,10.80
2019-04-29T14:27:44.921Z,10.80
2019-04-29T14:30:37.800Z,10.80
2019-04-29T14:33:08.793Z,10.90
2019-04-29T14:38:58.959Z,10.80
2019-04-29T14:41:42.696Z,10.80
2019-04-29T14:44:42.589Z,10.90
2019-04-29T14:50:22.990Z,10.90
2019-04-29T14:53:03.594Z,10.90
2019-04-29T14:55:44.147Z,10.90
2019-04-29T14:58:24.851Z,10.90
2019-04-29T15:01:12.730Z,10.90
2019-04-29T15:03:56.572Z,11.00
2019-04-29T15:06:38.052Z,11.00
2019-04-29T15:09:19.962Z,11.00
2019-04-29T15:12:25.547Z,10.80
2019-04-29T15:21:33.355Z,10.90
2019-04-29T15:24:17.397Z,10.80
2019-04-29T15:26:56.938Z,10.80
2019-04-29T15:29:37.738Z,10.70
2019-04-29T15:32:22.041Z,10.70
2019-04-29T15:35:01.329Z,10.80
2019-04-29T15:37:42.015Z,10.90
2019-04-29T15:40:26.010Z,10.90
2019-04-29T15:43:06.000Z,11.00
2019-04-29T15:45:46.716Z,11.00
2019-04-29T15:48:27.211Z,10.90
2019-04-29T15:51:09.224Z,11.00
2019-04-29T15:53:54.150Z,11.00
2019-04-29T15:56:38.300Z,11.00
2019-04-29T15:59:16.537Z,11.00
2019-04-29T16:01:58.997Z,11.00
2019-04-29T16:04:47.264Z,11.10
2019-04-29T16:13:39.098Z,11.10
2019-04-29T16:16:19.423Z,11.10
2019-04-29T16:19:06.783Z,11.10
2019-04-29T16:21:42.769Z,11.00
2019-04-29T16:24:26.821Z,11.10
2019-04-29T16:27:08.488Z,11.10
2019-04-29T16:29:51.720Z,11.10
2019-04-29T16:32:35.665Z,11.10
2019-04-29T16:35:18.011Z,11.10
2019-04-29T16:38:05.752Z,11.10
2019-04-29T16:40:46.355Z,11.30
2019-04-29T16:43:33.785Z,11.40
2019-04-29T16:46:37.456Z,11.40
2019-04-29T16:49:16.661Z,11.50
2019-04-29T16:51:57.439Z,11.60
2019-04-29T16:54:38.284Z,11.70
2019-04-29T16:57:19.799Z,11.80
2019-04-29T17:00:06.493Z,11.80
2019-04-29T17:02:43.431Z,11.90
2019-04-29T17:05:25.085Z,11.90
2019-04-29T17:08:09.384Z,11.80
2019-04-29T17:13:42.308Z,11.90
2019-04-29T17:16:24.372Z,12.00
2019-04-29T17:19:05.414Z,11.80
2019-04-29T17:21:46.178Z,11.70
2019-04-29T17:24:26.939Z,11.80
2019-04-29T17:30:46.652Z,11.90
2019-04-29T17:36:36.607Z,11.90
2019-04-29T17:39:17.507Z,11.90
2019-04-29T17:41:58.660Z,11.80
2019-04-29T17:44:48.783Z,11.80
2019-04-29T17:47:49.122Z,11.70
2019-04-29T17:50:48.731Z,11.70
2019-04-29T17:53:35.446Z,11.70
2019-04-29T17:56:36.537Z,11.80
2019-04-29T18:05:33.014Z,11.80
2019-04-29T18:08:25.407Z,11.80
2019-04-29T18:11:08.195Z,11.80
2019-04-29T18:13:52.533Z,11.80
2019-04-29T18:16:39.541Z,11.90
2019-04-29T18:19:26.316Z,11.90
2019-04-29T18:22:29.210Z,11.80
2019-04-29T18:28:08.778Z,11.80
2019-04-29T18:30:49.653Z,11.80
2019-04-29T18:33:32.039Z,11.90
2019-04-29T18:36:21.562Z,12.00
2019-04-29T18:38:55.650Z,12.00
2019-04-29T18:41:36.726Z,12.00
2019-04-29T18:44:19.643Z,12.10
2019-04-29T18:47:00.327Z,12.10
2019-04-29T18:49:40.740Z,12.00
2019-04-29T18:52:25.787Z,11.80
2019-04-29T18:55:03.707Z,11.80
2019-04-29T18:57:44.581Z,11.80
2019-04-29T19:00:25.586Z,11.90
2019-04-29T19:03:06.742Z,11.90
2019-04-29T19:05:55.069Z,11.80
2019-04-29T19:08:36.106Z,11.90
2019-04-29T19:11:16.626Z,11.80
2019-04-29T19:13:57.465Z,11.80
2019-04-29T19:16:39.571Z,11.90
2019-04-29T19:19:20.189Z,11.90
2019-04-29T19:22:07.668Z,11.90
2019-04-29T19:24:46.187Z,11.90
2019-04-29T19:27:26.173Z,11.90
2019-04-29T19:30:08.762Z,12.00
2019-04-29T19:32:49.217Z,12.00
2019-04-29T19:35:34.583Z,11.90
2019-04-29T19:38:14.028Z,11.80
2019-04-29T19:40:53.667Z,11.90
2019-04-29T19:43:41.806Z,11.80
2019-04-29T19:46:36.740Z,11.80
2019-04-29T19:49:19.619Z,11.70
2019-04-29T19:52:07.939Z,11.70
2019-04-29T19:54:57.302Z,11.80
2019-04-29T19:57:48.176Z,11.80
2019-04-29T20:00:38.255Z,11.80
2019-04-29T20:06:36.745Z,11.70
2019-04-29T20:09:27.923Z,11.70
2019-04-29T20:12:17.327Z,11.60
2019-04-29T20:15:07.730Z,11.60
2019-04-29T20:18:13.438Z,11.70
2019-04-29T20:21:25.085Z,11.70
2019-04-29T20:24:15.521Z,11.80
2019-04-29T20:29:38.324Z,11.90
2019-04-29T20:32:27.787Z,11.80
2019-04-29T20:35:15.854Z,11.80
2019-04-29T20:38:00.279Z,11.80
2019-04-29T20:40:43.382Z,11.70
2019-04-29T20:43:26.036Z,11.80
2019-04-29T20:46:05.945Z,11.90
2019-04-29T20:48:50.508Z,11.80
2019-04-29T20:51:47.852Z,11.90
2019-04-29T20:54:19.416Z,12.00
2019-04-29T20:57:04.934Z,12.00
2019-04-29T20:59:46.432Z,12.10
2019-04-29T21:02:31.205Z,12.10
2019-04-29T21:05:09.789Z,12.20
2019-04-29T21:08:02.366Z,12.20
2019-04-29T21:10:33.347Z,12.30
2019-04-29T21:13:33.251Z,12.30
2019-04-29T21:16:29.646Z,12.30
2019-04-29T21:19:09.162Z,12.30
2019-04-29T21:21:50.035Z,12.30
2019-04-29T21:24:31.122Z,12.30
2019-04-29T21:27:17.666Z,12.40
2019-04-29T21:29:55.419Z,12.30
2019-04-29T21:32:38.947Z,12.40
2019-04-29T21:35:37.983Z,12.30
2019-04-29T21:44:17.224Z,12.10
2019-04-29T21:46:59.592Z,12.00
2019-04-29T21:49:45.268Z,12.00
2019-04-29T21:52:24.079Z,12.00
2019-04-29T21:55:06.471Z,11.90
2019-04-29T21:57:47.063Z,11.90
2019-04-29T22:00:27.578Z,11.90
2019-04-29T22:03:08.866Z,11.90
2019-04-29T22:05:53.453Z,11.90
2019-04-29T22:08:32.289Z,11.90
2019-04-29T22:11:12.710Z,11.80
2019-04-29T22:13:55.399Z,11.70
2019-04-29T22:16:36.396Z,11.70
2019-04-29T22:19:17.600Z,11.60
2019-04-29T22:22:01.548Z,11.60
2019-04-29T22:24:40.998Z,11.50
2019-04-29T22:27:21.758Z,11.40
2019-04-29T22:30:02.307Z,11.40
2019-04-29T22:32:42.896Z,11.30
2019-04-29T22:35:25.176Z,11.20
2019-04-29T22:38:07.850Z,11.00
2019-04-29T22:40:50.478Z,11.10
2019-04-29T22:46:35.673Z,11.00
2019-04-29T22:49:19.821Z,10.80
2019-04-29T22:51:59.197Z,10.80
2019-04-29T22:54:39.846Z,10.80
2019-04-29T22:57:22.997Z,10.70
2019-04-29T23:00:05.121Z,10.70
2019-04-29T23:02:46.588Z,10.70
2019-04-29T23:05:27.925Z,10.60
2019-04-29T23:08:10.077Z,10.50
2019-04-29T23:10:50.547Z,10.50
2019-04-29T23:13:32.325Z,10.40
2019-04-29T23:16:12.983Z,10.30
2019-04-29T23:18:55.264Z,10.30
2019-04-29T23:21:55.985Z,10.20
2019-04-29T23:24:55.821Z,10.10
2019-04-29T23:27:37.271Z,9.80
2019-04-29T23:30:22.437Z,9.40
2019-04-29T23:33:02.860Z,9.20
2019-04-29T23:35:44.793Z,9.10
2019-04-29T23:38:25.725Z,8.80
2019-04-29T23:41:07.117Z,8.70
2019-04-29T23:43:48.161Z,8.60
2019-04-29T23:46:29.691Z,8.50
2019-04-29T23:49:10.585Z,8.50
2019-04-29T23:51:51.216Z,8.50
2019-04-29T23:54:32.067Z,8.40
2019-04-29T23:57:23.727Z,8.20
